Anette — A8WY8 — position and weather

sailwx.info

Track history (hours):
 
Tides and Currents Weather Stations Pressure Air Temp Water Temp Dewpoint Dewpoint Depression Visibility Wind Speed Wind Dir Waves Ship Positions

Anette

Last reported at 2016-Jun-21 05:33 UTC. Time now 2016-Jun-29 02:06 UTC.
Position S 00°38' W 048°23'.

Length 180 m; draft 10.2 m.

Type: Cargo ship. MMSI: 636092099.

Date/timePositionNaut miles runAvg speedWind from/ knotsBaromVisibWave heightAir tempDewpointWater temp
2016-Jun-21 05:33S 00°38' W 048°23'1414.5
2016-Jun-21 04:33S 00°51' W 048°29'1111.3
2016-Jun-21 03:33S 01°03' W 048°28'9 9.0
2016-Jun-21 02:33S 01°11' W 048°33'1010.4
2016-Jun-21 01:33S 01°19' W 048°39'1211.7
2016-Jun-21 00:33S 01°29' W 048°45'6 5.5
2016-Jun-20 23:33S 01°34' W 048°47'0 0.0
2016-Jun-20 22:29S 01°34' W 048°47'0 0.0
2016-Jun-20 21:23S 01°34' W 048°47'0 0.0
2016-Jun-20 20:29S 01°34' W 048°47'0 0.0
2016-Jun-20 17:29S 01°34' W 048°47'0 0.0
2016-Jun-20 16:29S 01°34' W 048°47'0 0.0
2016-Jun-20 15:17S 01°34' W 048°47'0 0.0
2016-Jun-20 14:29S 01°34' W 048°47'0 0.0
2016-Jun-20 13:29S 01°34' W 048°47'0 0.0
2016-Jun-20 12:29S 01°34' W 048°47'0 0.0
2016-Jun-20 11:29S 01°34' W 048°47'0 0.0
2016-Jun-20 10:29S 01°34' W 048°47'0 0.0
2016-Jun-20 09:29S 01°34' W 048°47'0 0.0
2016-Jun-20 08:29S 01°34' W 048°47'0 0.0
2016-Jun-20 07:29S 01°34' W 048°47'0 0.0
2016-Jun-20 06:29S 01°34' W 048°47'0 0.0
2016-Jun-20 05:29S 01°34' W 048°47'0 0.0
2016-Jun-20 04:29S 01°34' W 048°47'0 0.0
2016-Jun-20 03:29S 01°34' W 048°47'0 0.0
2016-Jun-20 02:29S 01°34' W 048°47'0 0.0
2016-Jun-20 01:29S 01°34' W 048°47'0 0.0
2016-Jun-20 00:29S 01°34' W 048°47'0 0.0
2016-Jun-19 23:29S 01°34' W 048°47'0 0.0
2016-Jun-19 22:29S 01°34' W 048°47'0 0.0
2016-Jun-19 21:29S 01°34' W 048°47'0 0.0
2016-Jun-19 20:29S 01°34' W 048°47'0 0.0
2016-Jun-19 19:29S 01°34' W 048°47'0 0.0
2016-Jun-19 18:29S 01°34' W 048°47'0 0.0
2016-Jun-19 17:23S 01°34' W 048°47'0 0.0
2016-Jun-19 16:29S 01°34' W 048°47'0 0.0
2016-Jun-19 15:23S 01°34' W 048°47'0 0.0
2016-Jun-19 14:29S 01°34' W 048°47'0 0.0
2016-Jun-19 13:29S 01°34' W 048°47'0 0.0
2016-Jun-19 01:29S 01°34' W 048°47'0 0.0
2016-Jun-19 00:29S 01°34' W 048°47'0 0.0
2016-Jun-18 23:23S 01°34' W 048°47'0 0.0
2016-Jun-18 22:29S 01°34' W 048°47'0 0.0
2016-Jun-18 21:29S 01°34' W 048°47'0 0.0
2016-Jun-18 20:29S 01°34' W 048°47'0 0.0
2016-Jun-18 19:23S 01°34' W 048°47'0 0.0
2016-Jun-18 18:29S 01°34' W 048°47'0 0.0
2016-Jun-18 17:29S 01°34' W 048°47'0 0.0
2016-Jun-18 13:17S 01°34' W 048°47'0 0.0
2016-Jun-18 12:29S 01°34' W 048°47'0 0.0
2016-Jun-18 11:29S 01°34' W 048°47'0 0.0
2016-Jun-18 10:29S 01°34' W 048°47'0 0.0
2016-Jun-18 09:29S 01°34' W 048°47'0 0.0
2016-Jun-18 08:29S 01°34' W 048°47'0 0.0
2016-Jun-18 07:29S 01°34' W 048°47'0 0.0
2016-Jun-18 06:29S 01°34' W 048°47'0 0.0
2016-Jun-18 05:29S 01°34' W 048°47'0 0.0
2016-Jun-18 04:29S 01°34' W 048°47'0 0.0
2016-Jun-18 03:29S 01°34' W 048°47'0 0.0
2016-Jun-18 02:29S 01°34' W 048°47'0 0.0
2016-Jun-18 01:23S 01°34' W 048°47'0 0.0
2016-Jun-18 00:29S 01°34' W 048°47'0 0.0
2016-Jun-17 23:33S 01°34' W 048°47'1 0.5
2016-Jun-17 22:30S 01°34' W 048°47'3 3.4
2016-Jun-17 21:33S 01°31' W 048°46'1414.2
2016-Jun-17 20:33S 01°19' W 048°39'1313.0
2016-Jun-17 19:33S 01°08' W 048°31'3 2.5
2016-Jun-17 18:33S 01°06' W 048°29'0 0.0
2016-Jun-17 17:33S 01°06' W 048°29'6 5.8
2016-Jun-17 16:33S 01°01' W 048°27'1211.9
2016-Jun-17 15:33S 00°49' W 048°29'1312.7
2016-Jun-17 14:33S 00°38' W 048°23'  
Track history (hours):
 
Tides and Currents Weather Stations Pressure Air Temp Water Temp Dewpoint Dewpoint Depression Visibility Wind Speed Wind Dir Waves Ship Positions

Anette

Last reported at 2016-Jun-21 05:33 UTC. Time now 2016-Jun-29 02:06 UTC.
Position S 00°38' W 048°23'.

Length 180 m; draft 10.2 m.

Type: Cargo ship. MMSI: 636092099.

Date/timePositionNaut miles runAvg speedWind from/ knotsBaromVisibWave heightAir tempDewpointWater temp
2016-Jun-21 05:33S 00°38' W 048°23'1414.5
2016-Jun-21 04:33S 00°51' W 048°29'1111.3
2016-Jun-21 03:33S 01°03' W 048°28'9 9.0
2016-Jun-21 02:33S 01°11' W 048°33'1010.4
2016-Jun-21 01:33S 01°19' W 048°39'1211.7
2016-Jun-21 00:33S 01°29' W 048°45'6 5.5
2016-Jun-20 23:33S 01°34' W 048°47'0 0.0
2016-Jun-20 22:29S 01°34' W 048°47'0 0.0
2016-Jun-20 21:23S 01°34' W 048°47'0 0.0
2016-Jun-20 20:29S 01°34' W 048°47'0 0.0
2016-Jun-20 17:29S 01°34' W 048°47'0 0.0
2016-Jun-20 16:29S 01°34' W 048°47'0 0.0
2016-Jun-20 15:17S 01°34' W 048°47'0 0.0
2016-Jun-20 14:29S 01°34' W 048°47'0 0.0
2016-Jun-20 13:29S 01°34' W 048°47'0 0.0
2016-Jun-20 12:29S 01°34' W 048°47'0 0.0
2016-Jun-20 11:29S 01°34' W 048°47'0 0.0
2016-Jun-20 10:29S 01°34' W 048°47'0 0.0
2016-Jun-20 09:29S 01°34' W 048°47'0 0.0
2016-Jun-20 08:29S 01°34' W 048°47'0 0.0
2016-Jun-20 07:29S 01°34' W 048°47'0 0.0
2016-Jun-20 06:29S 01°34' W 048°47'0 0.0
2016-Jun-20 05:29S 01°34' W 048°47'0 0.0
2016-Jun-20 04:29S 01°34' W 048°47'0 0.0
2016-Jun-20 03:29S 01°34' W 048°47'0 0.0
2016-Jun-20 02:29S 01°34' W 048°47'0 0.0
2016-Jun-20 01:29S 01°34' W 048°47'0 0.0
2016-Jun-20 00:29S 01°34' W 048°47'0 0.0
2016-Jun-19 23:29S 01°34' W 048°47'0 0.0
2016-Jun-19 22:29S 01°34' W 048°47'0 0.0
2016-Jun-19 21:29S 01°34' W 048°47'0 0.0
2016-Jun-19 20:29S 01°34' W 048°47'0 0.0
2016-Jun-19 19:29S 01°34' W 048°47'0 0.0
2016-Jun-19 18:29S 01°34' W 048°47'0 0.0
2016-Jun-19 17:23S 01°34' W 048°47'0 0.0
2016-Jun-19 16:29S 01°34' W 048°47'0 0.0
2016-Jun-19 15:23S 01°34' W 048°47'0 0.0
2016-Jun-19 14:29S 01°34' W 048°47'0 0.0
2016-Jun-19 13:29S 01°34' W 048°47'0 0.0
2016-Jun-19 01:29S 01°34' W 048°47'0 0.0
2016-Jun-19 00:29S 01°34' W 048°47'0 0.0
2016-Jun-18 23:23S 01°34' W 048°47'0 0.0
2016-Jun-18 22:29S 01°34' W 048°47'0 0.0
2016-Jun-18 21:29S 01°34' W 048°47'0 0.0
2016-Jun-18 20:29S 01°34' W 048°47'0 0.0
2016-Jun-18 19:23S 01°34' W 048°47'0 0.0
2016-Jun-18 18:29S 01°34' W 048°47'0 0.0
2016-Jun-18 17:29S 01°34' W 048°47'0 0.0
2016-Jun-18 13:17S 01°34' W 048°47'0 0.0
2016-Jun-18 12:29S 01°34' W 048°47'0 0.0
2016-Jun-18 11:29S 01°34' W 048°47'0 0.0
2016-Jun-18 10:29S 01°34' W 048°47'0 0.0
2016-Jun-18 09:29S 01°34' W 048°47'0 0.0
2016-Jun-18 08:29S 01°34' W 048°47'0 0.0
2016-Jun-18 07:29S 01°34' W 048°47'0 0.0
2016-Jun-18 06:29S 01°34' W 048°47'0 0.0
2016-Jun-18 05:29S 01°34' W 048°47'0 0.0
2016-Jun-18 04:29S 01°34' W 048°47'0 0.0
2016-Jun-18 03:29S 01°34' W 048°47'0 0.0
2016-Jun-18 02:29S 01°34' W 048°47'0 0.0
2016-Jun-18 01:23S 01°34' W 048°47'0 0.0
2016-Jun-18 00:29S 01°34' W 048°47'0 0.0
2016-Jun-17 23:33S 01°34' W 048°47'1 0.5
2016-Jun-17 22:30S 01°34' W 048°47'3 3.4
2016-Jun-17 21:33S 01°31' W 048°46'1414.2
2016-Jun-17 20:33S 01°19' W 048°39'1313.0
2016-Jun-17 19:33S 01°08' W 048°31'3 2.5
2016-Jun-17 18:33S 01°06' W 048°29'0 0.0
2016-Jun-17 17:33S 01°06' W 048°29'6 5.8
2016-Jun-17 16:33S 01°01' W 048°27'1211.9
2016-Jun-17 15:33S 00°49' W 048°29'1312.7
2016-Jun-17 14:33S 00°38' W 048°23'  

Dump ship's entire track history